Blue Yonder — WCW3625 — position and weather

sailwx.info

Track history (hours):
 
Tides and Currents Weather Stations Pressure Air Temp Water Temp Dewpoint Dewpoint Depression Visibility Wind Speed Wind Dir Waves Ship Positions

Blue Yonder

Owner: BRIDGES, DAVID M, VIRGINIA BEACH, VA. More information available from US FCC via Universal Licensing System and Coast Guard Vessel Documentation Center.

Last reported at 2016-Jul-13 15:11 UTC. Time now 2016-Jul-29 19:43 UTC.
Position N 42°42' W 070°28'.
Warning: this ship's position is 16 days out of date.

Length 12 m.

Type: Sailing vessel. MMSI: 367091720.

Date/timePositionNaut miles runAvg speedWind from/ knotsBaromVisibWave heightAir tempDewpointWater temp
2016-Jul-13 15:11N 42°42' W 070°28'3 4.3
2016-Jul-13 14:33N 42°40' W 070°30'4 3.6
2016-Jul-13 13:33N 42°38' W 070°33'3 3.4
2016-Jul-13 12:33N 42°36' W 070°37'2 2.5
2016-Jul-13 11:33N 42°36' W 070°40'1 0.6
2016-Jul-13 10:30N 42°37' W 070°39'0 0.0
2016-Jul-13 09:33N 42°37' W 070°39'0 0.0
2016-Jul-13 08:33N 42°37' W 070°39'0 0.0
2016-Jul-13 07:30N 42°37' W 070°39'0 0.0
2016-Jul-13 06:33N 42°37' W 070°39'0 0.0
2016-Jul-13 05:33N 42°37' W 070°39'0 0.0
2016-Jul-13 04:33N 42°37' W 070°39'0 0.0
2016-Jul-13 03:33N 42°37' W 070°39'0 0.0
2016-Jul-13 02:33N 42°37' W 070°39'0 0.0
2016-Jul-13 01:33N 42°37' W 070°39'0 0.0
2016-Jul-13 00:33N 42°37' W 070°39'0 0.0
2016-Jul-12 23:33N 42°37' W 070°39'0 0.0
2016-Jul-12 22:33N 42°37' W 070°39'0 0.0
2016-Jul-12 21:33N 42°37' W 070°39'0 0.0
2016-Jul-12 20:27N 42°37' W 070°39'0 0.0
2016-Jul-12 19:33N 42°37' W 070°39'0 0.0
2016-Jul-12 18:33N 42°37' W 070°39'0 0.0
2016-Jul-12 17:30N 42°37' W 070°39'0 0.0
2016-Jul-12 16:33N 42°37' W 070°39'0 0.0
2016-Jul-12 15:33N 42°37' W 070°39'0 0.0
2016-Jul-12 14:30N 42°37' W 070°39'0 0.0
2016-Jul-12 13:33N 42°37' W 070°39'0 0.0
2016-Jul-12 12:33N 42°37' W 070°39'0 0.0
2016-Jul-12 11:33N 42°37' W 070°39'0 0.0
2016-Jul-12 10:33N 42°37' W 070°39'0 0.0
2016-Jul-12 09:33N 42°37' W 070°39'0 0.0
2016-Jul-12 08:21N 42°37' W 070°39'0 0.0
2016-Jul-12 07:33N 42°37' W 070°39'0 0.0
2016-Jul-12 06:33N 42°37' W 070°39'0 0.0
2016-Jul-12 05:33N 42°37' W 070°39'0 0.0
2016-Jul-12 04:33N 42°37' W 070°39'0 0.0
2016-Jul-12 03:33N 42°37' W 070°39'0 0.0
2016-Jul-12 02:33N 42°37' W 070°39'0 0.0
2016-Jul-12 01:33N 42°37' W 070°39'0 0.0
2016-Jul-12 00:33N 42°37' W 070°39'0 0.0
2016-Jul-11 23:33N 42°37' W 070°39'0 0.0
2016-Jul-11 22:33N 42°37' W 070°39'0 0.0
2016-Jul-11 21:33N 42°37' W 070°39'0 0.0
2016-Jul-11 20:33N 42°37' W 070°39'0 0.0
2016-Jul-11 19:31N 42°37' W 070°39'0 0.0
2016-Jul-11 18:31N 42°37' W 070°39'0 0.0
2016-Jul-11 17:31N 42°37' W 070°39'0 0.0
2016-Jul-11 16:28N 42°37' W 070°39'0 0.0
2016-Jul-11 15:31N 42°37' W 070°39'0 0.0
2016-Jul-11 14:31N 42°37' W 070°39'0 0.0
2016-Jul-11 13:31N 42°37' W 070°39'0 0.0
2016-Jul-11 12:28N 42°37' W 070°39'0 0.0
2016-Jul-11 11:31N 42°37' W 070°39'0 0.0
2016-Jul-11 10:31N 42°37' W 070°39'0 0.0
2016-Jul-11 09:31N 42°37' W 070°39'0 0.0
2016-Jul-11 08:31N 42°37' W 070°39'0 0.0
2016-Jul-11 07:33N 42°37' W 070°39'0 0.0
2016-Jul-11 06:31N 42°37' W 070°39'0 0.0
2016-Jul-11 04:31N 42°37' W 070°39'0 0.0
2016-Jul-11 03:31N 42°37' W 070°39'0 0.0
2016-Jul-11 02:31N 42°37' W 070°39'0 0.0
2016-Jul-11 01:31N 42°37' W 070°39'0 0.0
2016-Jul-11 00:31N 42°37' W 070°39'0 0.0
2016-Jul-10 23:31N 42°37' W 070°39'0 0.0
2016-Jul-10 22:31N 42°37' W 070°39'0 0.0
2016-Jul-10 21:31N 42°37' W 070°39'0 0.0
2016-Jul-10 20:31N 42°37' W 070°39'0 0.0
2016-Jul-10 19:28N 42°37' W 070°39'0 0.0
2016-Jul-10 18:31N 42°37' W 070°39'0 0.0
2016-Jul-10 17:31N 42°37' W 070°39'0 0.0
2016-Jul-10 16:31N 42°37' W 070°39'0 0.0
2016-Jul-10 15:33N 42°37' W 070°39'0 0.4
2016-Jul-10 14:26N 42°36' W 070°40'0 0.0
2016-Jul-10 13:32N 42°36' W 070°40'0 0.0
2016-Jul-10 12:32N 42°36' W 070°40'0 0.0
2016-Jul-10 11:32N 42°36' W 070°40'0 0.0
2016-Jul-10 10:32N 42°36' W 070°40'0 0.0
2016-Jul-10 09:32N 42°36' W 070°40'0 0.0
2016-Jul-10 08:29N 42°36' W 070°40'0 0.0
2016-Jul-10 07:32N 42°36' W 070°40'0 0.0
2016-Jul-10 06:32N 42°36' W 070°40'0 0.0
2016-Jul-10 05:32N 42°36' W 070°40'0 0.0
2016-Jul-10 04:32N 42°36' W 070°40'0 0.0
2016-Jul-10 03:29N 42°36' W 070°40'0 0.0
2016-Jul-10 02:29N 42°36' W 070°40'0 0.0
2016-Jul-10 01:32N 42°36' W 070°40'0 0.0
2016-Jul-10 00:32N 42°36' W 070°40'0 0.0
2016-Jul-09 23:32N 42°36' W 070°40'0 0.0
2016-Jul-09 22:32N 42°36' W 070°40'0 0.0
2016-Jul-09 21:32N 42°36' W 070°40'0 0.0
2016-Jul-09 20:32N 42°36' W 070°40'0 0.0
2016-Jul-09 19:32N 42°36' W 070°40'0 0.0
2016-Jul-09 18:32N 42°36' W 070°40'0 0.0
2016-Jul-09 17:32N 42°36' W 070°40'0 0.0
2016-Jul-09 16:32N 42°36' W 070°40'0 0.0
2016-Jul-09 15:32N 42°36' W 070°40'0 0.0
2016-Jul-09 14:32N 42°36' W 070°40'0 0.0
2016-Jul-09 13:29N 42°36' W 070°40'0 0.0
2016-Jul-09 12:32N 42°36' W 070°40'0 0.0
2016-Jul-09 11:32N 42°36' W 070°40'0 0.0
2016-Jul-09 10:32N 42°36' W 070°40'0 0.0
2016-Jul-09 09:29N 42°36' W 070°40'0 0.0
2016-Jul-09 08:32N 42°36' W 070°40'0 0.0
2016-Jul-09 07:32N 42°36' W 070°40'0 0.0
2016-Jul-09 06:32N 42°36' W 070°40'0 0.0
2016-Jul-09 04:32N 42°36' W 070°40'0 0.0
2016-Jul-09 03:32N 42°36' W 070°40'0 0.0
2016-Jul-09 02:29N 42°36' W 070°40'0 0.0
2016-Jul-09 01:32N 42°36' W 070°40'0 0.0
2016-Jul-09 00:32N 42°36' W 070°40'0 0.0
2016-Jul-08 23:32N 42°36' W 070°40'0 0.0
2016-Jul-08 22:29N 42°36' W 070°40'0 0.0
2016-Jul-08 21:32N 42°36' W 070°40'0 0.0
2016-Jul-08 20:32N 42°36' W 070°40'0 0.0
2016-Jul-08 19:32N 42°36' W 070°40'0 0.0
2016-Jul-08 18:32N 42°36' W 070°40'0 0.0
2016-Jul-08 17:28N 42°36' W 070°40'0 0.0
2016-Jul-08 16:31N 42°36' W 070°40'2 2.2
2016-Jul-08 15:33N 42°35' W 070°41'  
2016-Jul-05 16:33N 42°20' W 070°57'  
Track history (hours):
 
Tides and Currents Weather Stations Pressure Air Temp Water Temp Dewpoint Dewpoint Depression Visibility Wind Speed Wind Dir Waves Ship Positions

Blue Yonder

Owner: BRIDGES, DAVID M, VIRGINIA BEACH, VA. More information available from US FCC via Universal Licensing System and Coast Guard Vessel Documentation Center.

Last reported at 2016-Jul-13 15:11 UTC. Time now 2016-Jul-29 19:43 UTC.
Position N 42°42' W 070°28'.
Warning: this ship's position is 16 days out of date.

Length 12 m.

Type: Sailing vessel. MMSI: 367091720.

Date/timePositionNaut miles runAvg speedWind from/ knotsBaromVisibWave heightAir tempDewpointWater temp
2016-Jul-13 15:11N 42°42' W 070°28'3 4.3
2016-Jul-13 14:33N 42°40' W 070°30'4 3.6
2016-Jul-13 13:33N 42°38' W 070°33'3 3.4
2016-Jul-13 12:33N 42°36' W 070°37'2 2.5
2016-Jul-13 11:33N 42°36' W 070°40'1 0.6
2016-Jul-13 10:30N 42°37' W 070°39'0 0.0
2016-Jul-13 09:33N 42°37' W 070°39'0 0.0
2016-Jul-13 08:33N 42°37' W 070°39'0 0.0
2016-Jul-13 07:30N 42°37' W 070°39'0 0.0
2016-Jul-13 06:33N 42°37' W 070°39'0 0.0
2016-Jul-13 05:33N 42°37' W 070°39'0 0.0
2016-Jul-13 04:33N 42°37' W 070°39'0 0.0
2016-Jul-13 03:33N 42°37' W 070°39'0 0.0
2016-Jul-13 02:33N 42°37' W 070°39'0 0.0
2016-Jul-13 01:33N 42°37' W 070°39'0 0.0
2016-Jul-13 00:33N 42°37' W 070°39'0 0.0
2016-Jul-12 23:33N 42°37' W 070°39'0 0.0
2016-Jul-12 22:33N 42°37' W 070°39'0 0.0
2016-Jul-12 21:33N 42°37' W 070°39'0 0.0
2016-Jul-12 20:27N 42°37' W 070°39'0 0.0
2016-Jul-12 19:33N 42°37' W 070°39'0 0.0
2016-Jul-12 18:33N 42°37' W 070°39'0 0.0
2016-Jul-12 17:30N 42°37' W 070°39'0 0.0
2016-Jul-12 16:33N 42°37' W 070°39'0 0.0
2016-Jul-12 15:33N 42°37' W 070°39'0 0.0
2016-Jul-12 14:30N 42°37' W 070°39'0 0.0
2016-Jul-12 13:33N 42°37' W 070°39'0 0.0
2016-Jul-12 12:33N 42°37' W 070°39'0 0.0
2016-Jul-12 11:33N 42°37' W 070°39'0 0.0
2016-Jul-12 10:33N 42°37' W 070°39'0 0.0
2016-Jul-12 09:33N 42°37' W 070°39'0 0.0
2016-Jul-12 08:21N 42°37' W 070°39'0 0.0
2016-Jul-12 07:33N 42°37' W 070°39'0 0.0
2016-Jul-12 06:33N 42°37' W 070°39'0 0.0
2016-Jul-12 05:33N 42°37' W 070°39'0 0.0
2016-Jul-12 04:33N 42°37' W 070°39'0 0.0
2016-Jul-12 03:33N 42°37' W 070°39'0 0.0
2016-Jul-12 02:33N 42°37' W 070°39'0 0.0
2016-Jul-12 01:33N 42°37' W 070°39'0 0.0
2016-Jul-12 00:33N 42°37' W 070°39'0 0.0
2016-Jul-11 23:33N 42°37' W 070°39'0 0.0
2016-Jul-11 22:33N 42°37' W 070°39'0 0.0
2016-Jul-11 21:33N 42°37' W 070°39'0 0.0
2016-Jul-11 20:33N 42°37' W 070°39'0 0.0
2016-Jul-11 19:31N 42°37' W 070°39'0 0.0
2016-Jul-11 18:31N 42°37' W 070°39'0 0.0
2016-Jul-11 17:31N 42°37' W 070°39'0 0.0
2016-Jul-11 16:28N 42°37' W 070°39'0 0.0
2016-Jul-11 15:31N 42°37' W 070°39'0 0.0
2016-Jul-11 14:31N 42°37' W 070°39'0 0.0
2016-Jul-11 13:31N 42°37' W 070°39'0 0.0
2016-Jul-11 12:28N 42°37' W 070°39'0 0.0
2016-Jul-11 11:31N 42°37' W 070°39'0 0.0
2016-Jul-11 10:31N 42°37' W 070°39'0 0.0
2016-Jul-11 09:31N 42°37' W 070°39'0 0.0
2016-Jul-11 08:31N 42°37' W 070°39'0 0.0
2016-Jul-11 07:33N 42°37' W 070°39'0 0.0
2016-Jul-11 06:31N 42°37' W 070°39'0 0.0
2016-Jul-11 04:31N 42°37' W 070°39'0 0.0
2016-Jul-11 03:31N 42°37' W 070°39'0 0.0
2016-Jul-11 02:31N 42°37' W 070°39'0 0.0
2016-Jul-11 01:31N 42°37' W 070°39'0 0.0
2016-Jul-11 00:31N 42°37' W 070°39'0 0.0
2016-Jul-10 23:31N 42°37' W 070°39'0 0.0
2016-Jul-10 22:31N 42°37' W 070°39'0 0.0
2016-Jul-10 21:31N 42°37' W 070°39'0 0.0
2016-Jul-10 20:31N 42°37' W 070°39'0 0.0
2016-Jul-10 19:28N 42°37' W 070°39'0 0.0
2016-Jul-10 18:31N 42°37' W 070°39'0 0.0
2016-Jul-10 17:31N 42°37' W 070°39'0 0.0
2016-Jul-10 16:31N 42°37' W 070°39'0 0.0
2016-Jul-10 15:33N 42°37' W 070°39'0 0.4
2016-Jul-10 14:26N 42°36' W 070°40'0 0.0
2016-Jul-10 13:32N 42°36' W 070°40'0 0.0
2016-Jul-10 12:32N 42°36' W 070°40'0 0.0
2016-Jul-10 11:32N 42°36' W 070°40'0 0.0
2016-Jul-10 10:32N 42°36' W 070°40'0 0.0
2016-Jul-10 09:32N 42°36' W 070°40'0 0.0
2016-Jul-10 08:29N 42°36' W 070°40'0 0.0
2016-Jul-10 07:32N 42°36' W 070°40'0 0.0
2016-Jul-10 06:32N 42°36' W 070°40'0 0.0
2016-Jul-10 05:32N 42°36' W 070°40'0 0.0
2016-Jul-10 04:32N 42°36' W 070°40'0 0.0
2016-Jul-10 03:29N 42°36' W 070°40'0 0.0
2016-Jul-10 02:29N 42°36' W 070°40'0 0.0
2016-Jul-10 01:32N 42°36' W 070°40'0 0.0
2016-Jul-10 00:32N 42°36' W 070°40'0 0.0
2016-Jul-09 23:32N 42°36' W 070°40'0 0.0
2016-Jul-09 22:32N 42°36' W 070°40'0 0.0
2016-Jul-09 21:32N 42°36' W 070°40'0 0.0
2016-Jul-09 20:32N 42°36' W 070°40'0 0.0
2016-Jul-09 19:32N 42°36' W 070°40'0 0.0
2016-Jul-09 18:32N 42°36' W 070°40'0 0.0
2016-Jul-09 17:32N 42°36' W 070°40'0 0.0
2016-Jul-09 16:32N 42°36' W 070°40'0 0.0
2016-Jul-09 15:32N 42°36' W 070°40'0 0.0
2016-Jul-09 14:32N 42°36' W 070°40'0 0.0
2016-Jul-09 13:29N 42°36' W 070°40'0 0.0
2016-Jul-09 12:32N 42°36' W 070°40'0 0.0
2016-Jul-09 11:32N 42°36' W 070°40'0 0.0
2016-Jul-09 10:32N 42°36' W 070°40'0 0.0
2016-Jul-09 09:29N 42°36' W 070°40'0 0.0
2016-Jul-09 08:32N 42°36' W 070°40'0 0.0
2016-Jul-09 07:32N 42°36' W 070°40'0 0.0
2016-Jul-09 06:32N 42°36' W 070°40'0 0.0
2016-Jul-09 04:32N 42°36' W 070°40'0 0.0
2016-Jul-09 03:32N 42°36' W 070°40'0 0.0
2016-Jul-09 02:29N 42°36' W 070°40'0 0.0
2016-Jul-09 01:32N 42°36' W 070°40'0 0.0
2016-Jul-09 00:32N 42°36' W 070°40'0 0.0
2016-Jul-08 23:32N 42°36' W 070°40'0 0.0
2016-Jul-08 22:29N 42°36' W 070°40'0 0.0
2016-Jul-08 21:32N 42°36' W 070°40'0 0.0
2016-Jul-08 20:32N 42°36' W 070°40'0 0.0
2016-Jul-08 19:32N 42°36' W 070°40'0 0.0
2016-Jul-08 18:32N 42°36' W 070°40'0 0.0
2016-Jul-08 17:28N 42°36' W 070°40'0 0.0
2016-Jul-08 16:31N 42°36' W 070°40'2 2.2
2016-Jul-08 15:33N 42°35' W 070°41'  
2016-Jul-05 16:33N 42°20' W 070°57'  

Dump ship's entire track history